Forside
METAR-TAF:

METAR-TAF

Lufthavne :

Cooma, Australien

Breddekreds: 36-18-00S, længdekreds: 148-58-24E, højde: 947 m

Aktuelle vejr

Denne rapport blev lavet for 57 minutter siden, kl. 16:00 UTC
Vind 8 kt fra syd
Temperatur 7°C
Fugtighed 87%
Tryk 1018 hPa
Sigt 10 km eller mere
Overskyet i en højde af 1700 ft
Overskyet i en højde af 2400 ft

METAR: YCOM 231600Z AUTO 18008KT 9999 // OVC017 OVC024 07/05 Q1018

Tid: 03:57 (16:57 UTC)


TAF: fraværende

Vejrobservationer og prognoser fra mere end 4000 lufthavne (METAR og TAF).

De gule og røde prikker repræsenterer de meteorologiske stationer.

Flyt musen over at se navnet på stationen.

Så klik over at se vejr observationer og prognoser.

At skifte det kort: Klik på de grønne knapper med et sort kors for at zoome ind; på den grønne knap med en bindestreg for at zoome ud; eller på de grønne pile for tilstødende kort.


METAR-TAF: